sensor_id;sensor_type;location;lat;lon;timestamp;temperature;humidity
18611;DHT22;9435;52.122;5.502;2023-11-21T00:02:26;7.20;99.90
18611;DHT22;9435;52.122;5.502;2023-11-21T00:04:54;7.10;99.90
18611;DHT22;9435;52.122;5.502;2023-11-21T00:07:21;7.10;99.90
18611;DHT22;9435;52.122;5.502;2023-11-21T00:09:48;7.10;99.90
18611;DHT22;9435;52.122;5.502;2023-11-21T00:12:15;7.10;99.90
18611;DHT22;9435;52.122;5.502;2023-11-21T00:14:42;7.00;99.90
18611;DHT22;9435;52.122;5.502;2023-11-21T00:17:09;7.00;99.90
18611;DHT22;9435;52.122;5.502;2023-11-21T00:19:38;7.00;99.90
18611;DHT22;9435;52.122;5.502;2023-11-21T00:22:05;7.00;99.90
18611;DHT22;9435;52.122;5.502;2023-11-21T00:24:32;7.00;99.90
18611;DHT22;9435;52.122;5.502;2023-11-21T00:26:59;6.90;99.90
18611;DHT22;9435;52.122;5.502;2023-11-21T00:29:27;6.90;99.90
18611;DHT22;9435;52.122;5.502;2023-11-21T00:31:54;6.90;99.90
18611;DHT22;9435;52.122;5.502;2023-11-21T00:34:21;6.80;99.90
18611;DHT22;9435;52.122;5.502;2023-11-21T00:36:50;6.90;99.90
18611;DHT22;9435;52.122;5.502;2023-11-21T00:39:17;6.90;99.90
18611;DHT22;9435;52.122;5.502;2023-11-21T00:41:44;6.80;99.90
18611;DHT22;9435;52.122;5.502;2023-11-21T00:44:11;6.80;99.90
18611;DHT22;9435;52.122;5.502;2023-11-21T00:46:38;6.90;99.90
18611;DHT22;9435;52.122;5.502;2023-11-21T00:49:05;6.80;99.90
18611;DHT22;9435;52.122;5.502;2023-11-21T00:51:33;6.80;99.90
18611;DHT22;9435;52.122;5.502;2023-11-21T00:54:01;6.80;99.90
18611;DHT22;9435;52.122;5.502;2023-11-21T00:56:29;6.80;99.90
18611;DHT22;9435;52.122;5.502;2023-11-21T00:58:56;6.80;99.90
18611;DHT22;9435;52.122;5.502;2023-11-21T01:01:23;6.70;99.90
18611;DHT22;9435;52.122;5.502;2023-11-21T01:03:51;6.70;99.90
18611;DHT22;9435;52.122;5.502;2023-11-21T01:06:18;6.70;99.90
18611;DHT22;9435;52.122;5.502;2023-11-21T01:08:45;6.70;99.90
18611;DHT22;9435;52.122;5.502;2023-11-21T01:11:13;6.70;99.90
18611;DHT22;9435;52.122;5.502;2023-11-21T01:13:41;6.70;99.90
18611;DHT22;9435;52.122;5.502;2023-11-21T01:16:08;6.70;99.90
18611;DHT22;9435;52.122;5.502;2023-11-21T01:18:36;6.80;99.90
18611;DHT22;9435;52.122;5.502;2023-11-21T01:21:03;6.80;99.90
18611;DHT22;9435;52.122;5.502;2023-11-21T01:23:31;6.80;99.90
18611;DHT22;9435;52.122;5.502;2023-11-21T01:25:58;6.80;99.90
18611;DHT22;9435;52.122;5.502;2023-11-21T01:28:26;6.80;99.90
18611;DHT22;9435;52.122;5.502;2023-11-21T01:30:54;6.90;99.90
18611;DHT22;9435;52.122;5.502;2023-11-21T01:33:22;6.90;99.90
18611;DHT22;9435;52.122;5.502;2023-11-21T01:35:50;6.90;99.90
18611;DHT22;9435;52.122;5.502;2023-11-21T01:38:20;6.90;99.90
18611;DHT22;9435;52.122;5.502;2023-11-21T01:40:47;7.00;99.90
18611;DHT22;9435;52.122;5.502;2023-11-21T01:43:15;7.00;99.90
18611;DHT22;9435;52.122;5.502;2023-11-21T01:45:43;7.00;99.90
18611;DHT22;9435;52.122;5.502;2023-11-21T01:48:13;7.00;99.90
18611;DHT22;9435;52.122;5.502;2023-11-21T01:50:42;7.00;99.90
18611;DHT22;9435;52.122;5.502;2023-11-21T01:53:12;7.10;99.90
18611;DHT22;9435;52.122;5.502;2023-11-21T01:55:40;7.10;99.90
18611;DHT22;9435;52.122;5.502;2023-11-21T01:58:08;7.10;99.90
18611;DHT22;9435;52.122;5.502;2023-11-21T02:00:35;7.10;99.90
18611;DHT22;9435;52.122;5.502;2023-11-21T02:03:07;7.20;99.90
18611;DHT22;9435;52.122;5.502;2023-11-21T02:05:36;7.20;99.90
18611;DHT22;9435;52.122;5.502;2023-11-21T02:08:04;7.20;99.90
18611;DHT22;9435;52.122;5.502;2023-11-21T02:10:31;7.20;99.90
18611;DHT22;9435;52.122;5.502;2023-11-21T02:12:58;7.20;99.90
18611;DHT22;9435;52.122;5.502;2023-11-21T02:15:28;7.30;99.90
18611;DHT22;9435;52.122;5.502;2023-11-21T02:17:55;7.30;99.90
18611;DHT22;9435;52.122;5.502;2023-11-21T02:20:25;7.30;99.90
18611;DHT22;9435;52.122;5.502;2023-11-21T02:22:56;7.30;99.90
18611;DHT22;9435;52.122;5.502;2023-11-21T02:25:25;7.30;99.90
18611;DHT22;9435;52.122;5.502;2023-11-21T02:27:53;7.30;99.90
18611;DHT22;9435;52.122;5.502;2023-11-21T02:30:21;7.40;99.90
18611;DHT22;9435;52.122;5.502;2023-11-21T02:32:48;7.50;99.90
18611;DHT22;9435;52.122;5.502;2023-11-21T02:35:16;7.50;99.90
18611;DHT22;9435;52.122;5.502;2023-11-21T02:37:43;7.50;99.90
18611;DHT22;9435;52.122;5.502;2023-11-21T02:40:12;7.50;99.90
18611;DHT22;9435;52.122;5.502;2023-11-21T02:42:43;7.60;99.90
18611;DHT22;9435;52.122;5.502;2023-11-21T02:45:10;7.60;99.90
18611;DHT22;9435;52.122;5.502;2023-11-21T02:47:38;7.60;99.90
18611;DHT22;9435;52.122;5.502;2023-11-21T02:50:06;7.70;99.90
18611;DHT22;9435;52.122;5.502;2023-11-21T02:52:34;7.70;99.90
18611;DHT22;9435;52.122;5.502;2023-11-21T02:55:01;7.70;99.90
18611;DHT22;9435;52.122;5.502;2023-11-21T02:57:30;7.70;99.90
18611;DHT22;9435;52.122;5.502;2023-11-21T02:59:57;7.80;99.90
18611;DHT22;9435;52.122;5.502;2023-11-21T03:02:25;7.80;99.90
18611;DHT22;9435;52.122;5.502;2023-11-21T03:04:52;7.80;99.90
18611;DHT22;9435;52.122;5.502;2023-11-21T03:07:20;7.80;99.90
18611;DHT22;9435;52.122;5.502;2023-11-21T03:09:47;7.80;99.90
18611;DHT22;9435;52.122;5.502;2023-11-21T03:12:14;7.90;99.90
18611;DHT22;9435;52.122;5.502;2023-11-21T03:14:43;7.90;99.90
18611;DHT22;9435;52.122;5.502;2023-11-21T03:17:10;7.90;99.90
18611;DHT22;9435;52.122;5.502;2023-11-21T03:19:37;7.90;99.90
18611;DHT22;9435;52.122;5.502;2023-11-21T03:22:04;7.90;99.90
18611;DHT22;9435;52.122;5.502;2023-11-21T03:24:31;7.90;99.90
18611;DHT22;9435;52.122;5.502;2023-11-21T03:26:58;7.90;99.90
18611;DHT22;9435;52.122;5.502;2023-11-21T03:29:25;8.00;99.90
18611;DHT22;9435;52.122;5.502;2023-11-21T03:31:54;8.00;99.90
18611;DHT22;9435;52.122;5.502;2023-11-21T03:34:24;8.00;99.90
18611;DHT22;9435;52.122;5.502;2023-11-21T03:36:51;8.00;99.90
18611;DHT22;9435;52.122;5.502;2023-11-21T03:39:19;8.00;99.90
18611;DHT22;9435;52.122;5.502;2023-11-21T03:41:46;8.00;99.90
18611;DHT22;9435;52.122;5.502;2023-11-21T03:44:14;8.00;99.90
18611;DHT22;9435;52.122;5.502;2023-11-21T03:46:41;8.00;99.90
18611;DHT22;9435;52.122;5.502;2023-11-21T03:49:10;8.00;99.90
18611;DHT22;9435;52.122;5.502;2023-11-21T03:51:37;8.10;99.90
18611;DHT22;9435;52.122;5.502;2023-11-21T03:54:04;8.00;99.90
18611;DHT22;9435;52.122;5.502;2023-11-21T03:56:31;8.10;99.90
18611;DHT22;9435;52.122;5.502;2023-11-21T03:58:58;8.10;99.90
18611;DHT22;9435;52.122;5.502;2023-11-21T04:01:25;8.10;99.90
18611;DHT22;9435;52.122;5.502;2023-11-21T04:03:53;8.10;99.90
18611;DHT22;9435;52.122;5.502;2023-11-21T04:06:21;8.10;99.90
18611;DHT22;9435;52.122;5.502;2023-11-21T04:08:48;8.10;99.90
18611;DHT22;9435;52.122;5.502;2023-11-21T04:11:15;8.10;99.90
18611;DHT22;9435;52.122;5.502;2023-11-21T04:13:42;8.10;99.90
18611;DHT22;9435;52.122;5.502;2023-11-21T04:16:09;8.20;99.90
18611;DHT22;9435;52.122;5.502;2023-11-21T04:18:39;8.20;99.90
18611;DHT22;9435;52.122;5.502;2023-11-21T04:21:06;8.20;99.90
18611;DHT22;9435;52.122;5.502;2023-11-21T04:23:35;8.20;99.90
18611;DHT22;9435;52.122;5.502;2023-11-21T04:26:03;8.30;99.90
18611;DHT22;9435;52.122;5.502;2023-11-21T04:28:30;8.30;99.90
18611;DHT22;9435;52.122;5.502;2023-11-21T04:30:57;8.30;99.90
18611;DHT22;9435;52.122;5.502;2023-11-21T04:33:24;8.30;99.90
18611;DHT22;9435;52.122;5.502;2023-11-21T04:35:51;8.30;99.90
18611;DHT22;9435;52.122;5.502;2023-11-21T04:38:18;8.40;99.90
18611;DHT22;9435;52.122;5.502;2023-11-21T04:40:47;8.30;99.90
18611;DHT22;9435;52.122;5.502;2023-11-21T04:43:14;8.30;99.90
18611;DHT22;9435;52.122;5.502;2023-11-21T04:45:41;8.40;99.90
18611;DHT22;9435;52.122;5.502;2023-11-21T04:48:08;8.40;99.90
18611;DHT22;9435;52.122;5.502;2023-11-21T04:50:37;8.40;99.90
18611;DHT22;9435;52.122;5.502;2023-11-21T04:53:04;8.40;99.90
18611;DHT22;9435;52.122;5.502;2023-11-21T04:55:31;8.50;99.90
18611;DHT22;9435;52.122;5.502;2023-11-21T04:58:00;8.40;99.90
18611;DHT22;9435;52.122;5.502;2023-11-21T05:00:27;8.50;99.90
18611;DHT22;9435;52.122;5.502;2023-11-21T05:02:54;8.50;99.90
18611;DHT22;9435;52.122;5.502;2023-11-21T05:05:21;8.50;99.90
18611;DHT22;9435;52.122;5.502;2023-11-21T05:07:48;8.50;99.90
18611;DHT22;9435;52.122;5.502;2023-11-21T05:10:15;8.50;99.90
18611;DHT22;9435;52.122;5.502;2023-11-21T05:12:43;8.60;99.90
18611;DHT22;9435;52.122;5.502;2023-11-21T05:15:14;8.60;99.90
18611;DHT22;9435;52.122;5.502;2023-11-21T05:17:41;8.60;99.90
18611;DHT22;9435;52.122;5.502;2023-11-21T05:20:10;8.60;99.90
18611;DHT22;9435;52.122;5.502;2023-11-21T05:22:43;8.60;99.90
18611;DHT22;9435;52.122;5.502;2023-11-21T05:25:12;8.60;99.90
18611;DHT22;9435;52.122;5.502;2023-11-21T05:27:39;8.70;99.90
18611;DHT22;9435;52.122;5.502;2023-11-21T05:30:06;8.70;99.90
18611;DHT22;9435;52.122;5.502;2023-11-21T05:32:36;8.70;99.90
18611;DHT22;9435;52.122;5.502;2023-11-21T05:35:04;8.70;99.90
18611;DHT22;9435;52.122;5.502;2023-11-21T05:37:35;8.70;99.90
18611;DHT22;9435;52.122;5.502;2023-11-21T05:40:05;8.80;99.90
18611;DHT22;9435;52.122;5.502;2023-11-21T05:42:33;8.80;99.90
18611;DHT22;9435;52.122;5.502;2023-11-21T05:45:00;8.80;99.90
18611;DHT22;9435;52.122;5.502;2023-11-21T05:47:37;8.80;99.90
18611;DHT22;9435;52.122;5.502;2023-11-21T05:50:07;8.80;99.90
18611;DHT22;9435;52.122;5.502;2023-11-21T05:52:40;8.80;99.90
18611;DHT22;9435;52.122;5.502;2023-11-21T05:55:08;8.80;99.90
18611;DHT22;9435;52.122;5.502;2023-11-21T05:57:35;8.80;99.90
18611;DHT22;9435;52.122;5.502;2023-11-21T06:00:05;8.90;99.90
18611;DHT22;9435;52.122;5.502;2023-11-21T06:02:39;8.90;99.90
18611;DHT22;9435;52.122;5.502;2023-11-21T06:05:07;8.90;99.90
18611;DHT22;9435;52.122;5.502;2023-11-21T06:07:35;8.90;99.90
18611;DHT22;9435;52.122;5.502;2023-11-21T06:10:02;9.00;99.90
18611;DHT22;9435;52.122;5.502;2023-11-21T06:12:32;8.90;99.90
18611;DHT22;9435;52.122;5.502;2023-11-21T06:15:01;9.00;99.90
18611;DHT22;9435;52.122;5.502;2023-11-21T06:17:31;9.00;99.90
18611;DHT22;9435;52.122;5.502;2023-11-21T06:19:59;9.00;99.90
18611;DHT22;9435;52.122;5.502;2023-11-21T06:22:29;9.00;99.90
18611;DHT22;9435;52.122;5.502;2023-11-21T06:24:56;9.00;99.90
18611;DHT22;9435;52.122;5.502;2023-11-21T06:27:23;9.00;99.90
18611;DHT22;9435;52.122;5.502;2023-11-21T06:29:51;9.00;99.90
18611;DHT22;9435;52.122;5.502;2023-11-21T06:32:18;9.10;99.90
18611;DHT22;9435;52.122;5.502;2023-11-21T06:34:46;9.10;99.90
18611;DHT22;9435;52.122;5.502;2023-11-21T06:37:14;9.10;99.90
18611;DHT22;9435;52.122;5.502;2023-11-21T06:39:42;9.10;99.90
18611;DHT22;9435;52.122;5.502;2023-11-21T06:42:09;9.00;99.90
18611;DHT22;9435;52.122;5.502;2023-11-21T06:44:41;9.20;99.90
18611;DHT22;9435;52.122;5.502;2023-11-21T06:47:10;9.10;99.90
18611;DHT22;9435;52.122;5.502;2023-11-21T06:49:37;9.20;99.90
18611;DHT22;9435;52.122;5.502;2023-11-21T06:52:04;9.20;99.90
18611;DHT22;9435;52.122;5.502;2023-11-21T06:54:33;9.20;99.90
18611;DHT22;9435;52.122;5.502;2023-11-21T06:57:00;9.20;99.90
18611;DHT22;9435;52.122;5.502;2023-11-21T06:59:28;9.30;99.90
18611;DHT22;9435;52.122;5.502;2023-11-21T07:01:56;9.30;99.90
18611;DHT22;9435;52.122;5.502;2023-11-21T07:04:23;9.20;99.90
18611;DHT22;9435;52.122;5.502;2023-11-21T07:06:51;9.30;99.90
18611;DHT22;9435;52.122;5.502;2023-11-21T07:09:18;9.30;99.90
18611;DHT22;9435;52.122;5.502;2023-11-21T07:11:49;9.30;99.90
18611;DHT22;9435;52.122;5.502;2023-11-21T07:14:16;9.30;99.90
18611;DHT22;9435;52.122;5.502;2023-11-21T07:16:45;9.30;99.90
18611;DHT22;9435;52.122;5.502;2023-11-21T07:19:13;9.30;99.90
18611;DHT22;9435;52.122;5.502;2023-11-21T07:21:40;9.40;99.90
18611;DHT22;9435;52.122;5.502;2023-11-21T07:24:08;9.40;99.90
18611;DHT22;9435;52.122;5.502;2023-11-21T07:26:37;9.40;99.90
18611;DHT22;9435;52.122;5.502;2023-11-21T07:29:06;9.40;99.90
18611;DHT22;9435;52.122;5.502;2023-11-21T07:31:33;9.40;99.90
18611;DHT22;9435;52.122;5.502;2023-11-21T07:34:01;9.40;99.90
18611;DHT22;9435;52.122;5.502;2023-11-21T07:36:28;9.40;99.90
18611;DHT22;9435;52.122;5.502;2023-11-21T07:38:57;9.50;99.90
18611;DHT22;9435;52.122;5.502;2023-11-21T07:41:24;9.50;99.90
18611;DHT22;9435;52.122;5.502;2023-11-21T07:43:52;9.60;99.90
18611;DHT22;9435;52.122;5.502;2023-11-21T07:46:20;9.60;99.90
18611;DHT22;9435;52.122;5.502;2023-11-21T07:48:48;9.60;99.90
18611;DHT22;9435;52.122;5.502;2023-11-21T07:51:15;9.60;99.90
18611;DHT22;9435;52.122;5.502;2023-11-21T07:53:43;9.60;99.90
18611;DHT22;9435;52.122;5.502;2023-11-21T07:56:10;9.60;99.90
18611;DHT22;9435;52.122;5.502;2023-11-21T07:58:38;9.60;99.90
18611;DHT22;9435;52.122;5.502;2023-11-21T08:01:05;9.70;99.90
18611;DHT22;9435;52.122;5.502;2023-11-21T08:03:35;9.70;99.90
18611;DHT22;9435;52.122;5.502;2023-11-21T08:06:02;9.80;99.90
18611;DHT22;9435;52.122;5.502;2023-11-21T08:08:31;9.80;99.90
18611;DHT22;9435;52.122;5.502;2023-11-21T08:10:58;9.80;99.90
18611;DHT22;9435;52.122;5.502;2023-11-21T08:13:28;9.90;99.90
18611;DHT22;9435;52.122;5.502;2023-11-21T08:15:56;9.90;99.90
18611;DHT22;9435;52.122;5.502;2023-11-21T08:18:27;10.00;99.90
18611;DHT22;9435;52.122;5.502;2023-11-21T08:20:56;10.10;99.90
18611;DHT22;9435;52.122;5.502;2023-11-21T08:23:23;10.10;99.90
18611;DHT22;9435;52.122;5.502;2023-11-21T08:25:51;10.10;99.90
18611;DHT22;9435;52.122;5.502;2023-11-21T08:28:18;10.10;99.90
18611;DHT22;9435;52.122;5.502;2023-11-21T08:30:49;10.20;99.90
18611;DHT22;9435;52.122;5.502;2023-11-21T08:33:16;10.30;99.90
18611;DHT22;9435;52.122;5.502;2023-11-21T08:35:43;10.30;99.90
18611;DHT22;9435;52.122;5.502;2023-11-21T08:38:12;10.30;99.90
18611;DHT22;9435;52.122;5.502;2023-11-21T08:40:40;10.40;99.90
18611;DHT22;9435;52.122;5.502;2023-11-21T08:43:07;10.30;99.90
18611;DHT22;9435;52.122;5.502;2023-11-21T08:45:34;10.50;99.90
18611;DHT22;9435;52.122;5.502;2023-11-21T08:48:01;10.50;99.90
18611;DHT22;9435;52.122;5.502;2023-11-21T08:50:29;10.50;99.90
18611;DHT22;9435;52.122;5.502;2023-11-21T08:52:56;10.50;99.90
18611;DHT22;9435;52.122;5.502;2023-11-21T08:55:24;10.50;99.90
18611;DHT22;9435;52.122;5.502;2023-11-21T08:57:51;10.50;99.90
18611;DHT22;9435;52.122;5.502;2023-11-21T09:00:18;10.60;99.90
18611;DHT22;9435;52.122;5.502;2023-11-21T09:02:46;10.60;99.90
18611;DHT22;9435;52.122;5.502;2023-11-21T09:05:14;10.50;99.90
18611;DHT22;9435;52.122;5.502;2023-11-21T09:07:42;10.50;99.90
18611;DHT22;9435;52.122;5.502;2023-11-21T09:10:12;10.60;99.90
18611;DHT22;9435;52.122;5.502;2023-11-21T09:12:41;10.50;99.90
18611;DHT22;9435;52.122;5.502;2023-11-21T09:15:10;10.60;99.90
18611;DHT22;9435;52.122;5.502;2023-11-21T09:17:37;10.70;99.90
18611;DHT22;9435;52.122;5.502;2023-11-21T09:20:06;10.70;99.90
18611;DHT22;9435;52.122;5.502;2023-11-21T09:22:35;10.80;99.90
18611;DHT22;9435;52.122;5.502;2023-11-21T09:25:03;10.80;99.90
18611;DHT22;9435;52.122;5.502;2023-11-21T09:27:31;10.70;99.90
18611;DHT22;9435;52.122;5.502;2023-11-21T09:30:00;10.70;99.90
18611;DHT22;9435;52.122;5.502;2023-11-21T09:32:27;10.70;99.90
18611;DHT22;9435;52.122;5.502;2023-11-21T09:34:55;10.70;99.90
18611;DHT22;9435;52.122;5.502;2023-11-21T09:37:24;10.70;99.90
18611;DHT22;9435;52.122;5.502;2023-11-21T09:39:52;10.70;99.90
18611;DHT22;9435;52.122;5.502;2023-11-21T09:42:25;10.70;99.90
18611;DHT22;9435;52.122;5.502;2023-11-21T09:44:58;10.70;99.90
18611;DHT22;9435;52.122;5.502;2023-11-21T09:47:28;10.70;99.90
18611;DHT22;9435;52.122;5.502;2023-11-21T09:49:56;10.60;99.90
18611;DHT22;9435;52.122;5.502;2023-11-21T09:52:28;10.70;99.90
18611;DHT22;9435;52.122;5.502;2023-11-21T09:54:56;10.70;99.90
18611;DHT22;9435;52.122;5.502;2023-11-21T09:57:24;10.80;99.90
18611;DHT22;9435;52.122;5.502;2023-11-21T09:59:52;10.70;99.90
18611;DHT22;9435;52.122;5.502;2023-11-21T10:02:24;10.70;99.90
18611;DHT22;9435;52.122;5.502;2023-11-21T10:04:55;10.70;99.90
18611;DHT22;9435;52.122;5.502;2023-11-21T10:07:23;10.70;99.90
18611;DHT22;9435;52.122;5.502;2023-11-21T10:09:51;10.70;99.90
18611;DHT22;9435;52.122;5.502;2023-11-21T10:12:18;10.70;99.90
18611;DHT22;9435;52.122;5.502;2023-11-21T10:14:48;10.70;99.90
18611;DHT22;9435;52.122;5.502;2023-11-21T10:17:18;10.60;99.90
18611;DHT22;9435;52.122;5.502;2023-11-21T10:19:47;10.60;99.90
18611;DHT22;9435;52.122;5.502;2023-11-21T10:22:15;10.60;99.90
18611;DHT22;9435;52.122;5.502;2023-11-21T10:24:43;10.70;99.90
18611;DHT22;9435;52.122;5.502;2023-11-21T10:27:10;10.70;99.90
18611;DHT22;9435;52.122;5.502;2023-11-21T10:29:39;10.70;99.90
18611;DHT22;9435;52.122;5.502;2023-11-21T10:32:07;10.80;99.90
18611;DHT22;9435;52.122;5.502;2023-11-21T10:34:35;10.70;99.90
18611;DHT22;9435;52.122;5.502;2023-11-21T10:37:11;10.70;99.90
18611;DHT22;9435;52.122;5.502;2023-11-21T10:39:40;10.70;99.90
18611;DHT22;9435;52.122;5.502;2023-11-21T10:42:09;10.60;99.90
18611;DHT22;9435;52.122;5.502;2023-11-21T10:44:37;10.70;99.90
18611;DHT22;9435;52.122;5.502;2023-11-21T10:47:04;10.50;99.90
18611;DHT22;9435;52.122;5.502;2023-11-21T10:49:31;10.50;99.90
18611;DHT22;9435;52.122;5.502;2023-11-21T10:51:58;10.50;99.90
18611;DHT22;9435;52.122;5.502;2023-11-21T10:54:25;10.50;99.90
18611;DHT22;9435;52.122;5.502;2023-11-21T10:56:57;10.50;99.90
18611;DHT22;9435;52.122;5.502;2023-11-21T10:59:29;10.50;99.90
18611;DHT22;9435;52.122;5.502;2023-11-21T11:01:58;10.40;99.90
18611;DHT22;9435;52.122;5.502;2023-11-21T11:04:27;10.40;99.90
18611;DHT22;9435;52.122;5.502;2023-11-21T11:06:56;10.30;99.90
18611;DHT22;9435;52.122;5.502;2023-11-21T11:09:24;10.40;99.90
18611;DHT22;9435;52.122;5.502;2023-11-21T11:11:51;10.40;99.90
18611;DHT22;9435;52.122;5.502;2023-11-21T11:14:21;10.40;99.90
18611;DHT22;9435;52.122;5.502;2023-11-21T11:16:53;10.40;99.90
18611;DHT22;9435;52.122;5.502;2023-11-21T11:19:21;10.40;99.90
18611;DHT22;9435;52.122;5.502;2023-11-21T11:21:57;10.30;99.90
18611;DHT22;9435;52.122;5.502;2023-11-21T11:24:44;10.40;99.90
18611;DHT22;9435;52.122;5.502;2023-11-21T11:27:25;10.40;99.90
18611;DHT22;9435;52.122;5.502;2023-11-21T11:30:10;10.30;99.90
18611;DHT22;9435;52.122;5.502;2023-11-21T11:32:47;10.30;99.90
18611;DHT22;9435;52.122;5.502;2023-11-21T11:35:22;10.30;99.90
18611;DHT22;9435;52.122;5.502;2023-11-21T11:37:51;10.20;99.90
18611;DHT22;9435;52.122;5.502;2023-11-21T11:40:19;10.20;99.90
18611;DHT22;9435;52.122;5.502;2023-11-21T11:42:56;10.20;99.90
18611;DHT22;9435;52.122;5.502;2023-11-21T11:45:32;10.30;99.90
18611;DHT22;9435;52.122;5.502;2023-11-21T11:48:00;10.30;99.90
18611;DHT22;9435;52.122;5.502;2023-11-21T11:50:28;10.30;99.90
18611;DHT22;9435;52.122;5.502;2023-11-21T11:52:57;10.40;99.90
18611;DHT22;9435;52.122;5.502;2023-11-21T11:55:38;10.30;99.90
18611;DHT22;9435;52.122;5.502;2023-11-21T11:58:06;10.30;99.90
18611;DHT22;9435;52.122;5.502;2023-11-21T12:00:36;10.30;99.90
18611;DHT22;9435;52.122;5.502;2023-11-21T12:03:06;10.30;99.90
18611;DHT22;9435;52.122;5.502;2023-11-21T12:05:35;10.30;99.90
18611;DHT22;9435;52.122;5.502;2023-11-21T12:08:05;10.30;99.90
18611;DHT22;9435;52.122;5.502;2023-11-21T12:10:34;10.40;99.90
18611;DHT22;9435;52.122;5.502;2023-11-21T12:13:05;10.30;99.90
18611;DHT22;9435;52.122;5.502;2023-11-21T12:15:35;10.40;99.90
18611;DHT22;9435;52.122;5.502;2023-11-21T12:18:03;10.40;99.90
18611;DHT22;9435;52.122;5.502;2023-11-21T12:20:31;10.40;99.90
18611;DHT22;9435;52.122;5.502;2023-11-21T12:23:04;10.40;99.90
18611;DHT22;9435;52.122;5.502;2023-11-21T12:25:32;10.40;99.90
18611;DHT22;9435;52.122;5.502;2023-11-21T12:28:00;10.50;99.90
18611;DHT22;9435;52.122;5.502;2023-11-21T12:30:29;10.40;99.90
18611;DHT22;9435;52.122;5.502;2023-11-21T12:33:00;10.40;99.90
18611;DHT22;9435;52.122;5.502;2023-11-21T12:35:28;10.30;99.90
18611;DHT22;9435;52.122;5.502;2023-11-21T12:37:56;10.30;99.90
18611;DHT22;9435;52.122;5.502;2023-11-21T12:40:24;10.30;99.90
18611;DHT22;9435;52.122;5.502;2023-11-21T12:42:53;10.30;99.90
18611;DHT22;9435;52.122;5.502;2023-11-21T12:45:22;10.30;99.90
18611;DHT22;9435;52.122;5.502;2023-11-21T12:47:54;10.30;99.90
18611;DHT22;9435;52.122;5.502;2023-11-21T12:50:24;10.30;99.90
18611;DHT22;9435;52.122;5.502;2023-11-21T12:52:58;10.40;99.90
18611;DHT22;9435;52.122;5.502;2023-11-21T12:55:25;10.40;99.90
18611;DHT22;9435;52.122;5.502;2023-11-21T12:57:54;10.40;99.90
18611;DHT22;9435;52.122;5.502;2023-11-21T13:00:28;10.40;99.90
18611;DHT22;9435;52.122;5.502;2023-11-21T13:02:56;10.50;99.90
18611;DHT22;9435;52.122;5.502;2023-11-21T13:05:26;10.40;99.90
18611;DHT22;9435;52.122;5.502;2023-11-21T13:07:54;10.50;99.90
18611;DHT22;9435;52.122;5.502;2023-11-21T13:10:24;10.40;99.90
18611;DHT22;9435;52.122;5.502;2023-11-21T13:12:53;10.50;99.90
18611;DHT22;9435;52.122;5.502;2023-11-21T13:15:21;10.40;99.90
18611;DHT22;9435;52.122;5.502;2023-11-21T13:17:48;10.40;99.90
18611;DHT22;9435;52.122;5.502;2023-11-21T13:20:17;10.40;99.90
18611;DHT22;9435;52.122;5.502;2023-11-21T13:22:51;10.40;99.90
18611;DHT22;9435;52.122;5.502;2023-11-21T13:25:20;10.40;99.90
18611;DHT22;9435;52.122;5.502;2023-11-21T13:27:48;10.30;99.90
18611;DHT22;9435;52.122;5.502;2023-11-21T13:30:16;10.40;99.90
18611;DHT22;9435;52.122;5.502;2023-11-21T13:32:46;10.40;99.90
18611;DHT22;9435;52.122;5.502;2023-11-21T13:35:16;10.40;99.90
18611;DHT22;9435;52.122;5.502;2023-11-21T13:37:53;10.30;99.90
18611;DHT22;9435;52.122;5.502;2023-11-21T13:40:22;10.30;99.90
18611;DHT22;9435;52.122;5.502;2023-11-21T13:42:52;10.30;99.90
18611;DHT22;9435;52.122;5.502;2023-11-21T13:45:21;10.20;99.90
18611;DHT22;9435;52.122;5.502;2023-11-21T13:47:50;10.20;99.90
18611;DHT22;9435;52.122;5.502;2023-11-21T13:50:24;10.10;99.90
18611;DHT22;9435;52.122;5.502;2023-11-21T13:52:57;10.10;99.90
18611;DHT22;9435;52.122;5.502;2023-11-21T13:55:28;10.10;99.90
18611;DHT22;9435;52.122;5.502;2023-11-21T13:57:55;10.00;99.90
18611;DHT22;9435;52.122;5.502;2023-11-21T14:00:22;9.90;99.90
18611;DHT22;9435;52.122;5.502;2023-11-21T14:03:10;9.90;99.90
18611;DHT22;9435;52.122;5.502;2023-11-21T14:05:45;9.90;99.90
18611;DHT22;9435;52.122;5.502;2023-11-21T14:08:18;9.90;99.90
18611;DHT22;9435;52.122;5.502;2023-11-21T14:10:46;9.80;99.90
18611;DHT22;9435;52.122;5.502;2023-11-21T14:13:17;9.80;99.90
18611;DHT22;9435;52.122;5.502;2023-11-21T14:15:45;9.80;99.90
18611;DHT22;9435;52.122;5.502;2023-11-21T14:18:16;9.80;99.90
18611;DHT22;9435;52.122;5.502;2023-11-21T14:20:51;9.70;99.90
18611;DHT22;9435;52.122;5.502;2023-11-21T14:23:20;9.70;99.90
18611;DHT22;9435;52.122;5.502;2023-11-21T14:25:49;9.70;99.90
18611;DHT22;9435;52.122;5.502;2023-11-21T14:28:17;9.70;99.90
18611;DHT22;9435;52.122;5.502;2023-11-21T14:30:45;9.70;99.90
18611;DHT22;9435;52.122;5.502;2023-11-21T14:33:13;9.60;99.90
18611;DHT22;9435;52.122;5.502;2023-11-21T14:35:42;9.60;99.90
18611;DHT22;9435;52.122;5.502;2023-11-21T14:38:09;9.60;99.90
18611;DHT22;9435;52.122;5.502;2023-11-21T14:40:37;9.60;99.90
18611;DHT22;9435;52.122;5.502;2023-11-21T14:43:05;9.60;99.90
18611;DHT22;9435;52.122;5.502;2023-11-21T14:45:32;9.60;99.90
18611;DHT22;9435;52.122;5.502;2023-11-21T14:47:59;9.60;99.90
18611;DHT22;9435;52.122;5.502;2023-11-21T14:50:34;9.60;99.90
18611;DHT22;9435;52.122;5.502;2023-11-21T14:53:35;9.60;99.90
18611;DHT22;9435;52.122;5.502;2023-11-21T14:56:10;9.30;99.90
18611;DHT22;9435;52.122;5.502;2023-11-21T14:58:43;9.30;99.90
18611;DHT22;9435;52.122;5.502;2023-11-21T15:01:09;9.20;99.90
18611;DHT22;9435;52.122;5.502;2023-11-21T15:03:36;9.20;99.90
18611;DHT22;9435;52.122;5.502;2023-11-21T15:06:12;9.20;99.90
18611;DHT22;9435;52.122;5.502;2023-11-21T15:08:57;9.10;99.90
18611;DHT22;9435;52.122;5.502;2023-11-21T15:11:47;9.10;99.90
18611;DHT22;9435;52.122;5.502;2023-11-21T15:14:16;9.10;99.90
18611;DHT22;9435;52.122;5.502;2023-11-21T15:16:49;9.00;99.90
18611;DHT22;9435;52.122;5.502;2023-11-21T15:19:19;9.10;99.90
18611;DHT22;9435;52.122;5.502;2023-11-21T15:21:51;9.00;99.90
18611;DHT22;9435;52.122;5.502;2023-11-21T15:24:18;9.00;99.90
18611;DHT22;9435;52.122;5.502;2023-11-21T15:26:47;9.00;99.90
18611;DHT22;9435;52.122;5.502;2023-11-21T15:29:14;9.00;99.90
18611;DHT22;9435;52.122;5.502;2023-11-21T15:31:42;9.10;99.90
18611;DHT22;9435;52.122;5.502;2023-11-21T15:34:14;9.00;99.90
18611;DHT22;9435;52.122;5.502;2023-11-21T15:36:41;9.00;99.90
18611;DHT22;9435;52.122;5.502;2023-11-21T15:39:08;9.00;99.90
18611;DHT22;9435;52.122;5.502;2023-11-21T15:41:37;8.90;99.90
18611;DHT22;9435;52.122;5.502;2023-11-21T15:44:06;8.90;99.90
18611;DHT22;9435;52.122;5.502;2023-11-21T15:46:35;8.90;99.90
18611;DHT22;9435;52.122;5.502;2023-11-21T15:49:04;8.80;99.90
18611;DHT22;9435;52.122;5.502;2023-11-21T15:51:38;8.70;99.90
18611;DHT22;9435;52.122;5.502;2023-11-21T15:54:06;8.70;99.90
18611;DHT22;9435;52.122;5.502;2023-11-21T15:56:33;8.60;99.90
18611;DHT22;9435;52.122;5.502;2023-11-21T15:59:01;8.60;99.90
18611;DHT22;9435;52.122;5.502;2023-11-21T16:01:31;8.60;99.90
18611;DHT22;9435;52.122;5.502;2023-11-21T16:04:00;8.50;99.90
18611;DHT22;9435;52.122;5.502;2023-11-21T16:06:28;8.30;99.90
18611;DHT22;9435;52.122;5.502;2023-11-21T16:08:56;8.30;99.90